Latest Weather Observations for PORTABLE RFSNSW02

IDN60801

Issued at 2:53 pm EST Wednesday 14 April 2021 (issued every 10 minutes, with the page automatically refreshed every 10 minutes)

About weather observations | Map of weather stations | Latest weather observations for NSW | Other Formats
Station Details ID: 250042 Name: PORTABLE RFSNSW02 Lat: -35.27 Lon: 148.24 Height: 267.0 m

Portable automatic weather stations (PAWS) are operated by other organisations, such as Fire and Emergency Services, and are included here by agreement. Portable stations may be deployed to a location for a short period and their location may be subject to change without notice. Wind observations from these stations are provided from heights of either three (3) or ten (10) metres above ground level (AGL).

Data from the previous 72 hours. | See also: Recent months for locations in New South Wales
Date/Time
EST
Temp
°C
App
Temp
°C
Dew
Point
°C
Rel
Hum
%
Delta-T
°C
Wind Press
QNH
hPa
Press
MSL
hPa
Rain since
9am
mm
Dir  Spd
km/h
Gust
km/h
Spd
kts
Gust
kts
14/02:40pm 21.4 19.4 6.9 39 7.5 N 7 13 4 7 - - 0.0
14/02:30pm 21.9 19.9 7.1 38 7.7 N 7 11 4 6 - - 0.0
14/02:20pm 22.1 20.0 6.7 37 8.0 N 7 11 4 6 - - 0.0
14/02:10pm 21.3 19.0 5.9 36 7.8 N 7 9 4 5 - - 0.0
14/02:00pm 20.6 18.7 6.5 40 7.2 NNW 6 7 3 4 - - 0.0
14/01:50pm 21.4 19.3 5.8 36 7.9 NNW 6 9 3 5 - - 0.0
14/01:40pm 21.2 20.0 6.3 38 7.6 WSW 2 4 1 2 - - 0.0
14/01:30pm 19.8 18.6 6.5 42 6.8 SSW 2 4 1 2 - - 0.0
14/01:20pm 19.1 17.7 7.3 46 6.1 SW 4 4 2 2 - - 0.0
14/01:10pm 18.6 17.0 6.5 45 6.1 W 4 4 2 2 - - 0.0
14/01:00pm 18.1 16.6 6.9 48 5.7 WSW 4 4 2 2 - - 0.0
14/12:50pm 17.8 16.4 7.4 50 5.3 SW 4 7 2 4 - - 0.0
14/12:40pm 17.4 15.7 7.4 52 5.1 SSW 6 7 3 4 - - 0.0
14/12:30pm 17.2 15.9 7.5 53 4.9 SSW 4 6 2 3 - - 0.0
14/12:20pm 17.2 16.2 7.4 52 5.0 S 2 2 1 1 - - 0.0
14/12:10pm 17.0 15.5 6.9 51 5.1 SSW 4 6 2 3 - - 0.0
14/12:00pm 17.0 15.7 7.8 54 4.7 SW 4 6 2 3 - - 0.0
14/11:50am 16.9 15.7 6.6 50 5.1 NNE 2 4 1 2 - - 0.0
14/11:40am 16.6 15.3 6.2 50 5.1 NE 2 4 1 2 - - 0.0
14/11:30am 16.3 15.1 6.4 52 4.9 SE 2 2 1 1 - - 0.0
14/11:20am 16.1 15.0 7.0 54 4.6 SSE 2 6 1 3 - - 0.0
14/11:10am 16.2 14.7 6.9 54 4.7 SSW 4 6 2 3 - - 0.0
14/11:00am 16.4 15.0 7.1 54 4.7 WSW 4 6 2 3 - - 0.0
14/10:50am 16.3 15.2 7.0 54 4.7 W 2 6 1 3 - - 0.0
14/10:40am 16.2 14.5 6.1 51 5.0 SW 4 4 2 2 - - 0.0
14/10:30am 16.0 14.5 7.0 55 4.5 SW 4 6 2 3 - - 0.0
14/10:20am 15.9 14.3 6.5 53 4.7 SSW 4 6 2 3 - - 0.0
14/10:10am 16.0 14.1 6.7 54 4.6 SW 6 7 3 4 - - 0.0
14/10:00am 16.0 14.4 6.5 53 4.7 WSW 4 7 2 4 - - 0.0
14/09:50am 16.1 14.4 5.7 50 5.1 SW 4 6 2 3 - - 0.0
14/09:40am 16.0 14.5 8.3 60 4.0 SSW 6 7 3 4 - - 0.0
14/09:30am 15.9 14.8 8.6 62 3.8 SW 4 6 2 3 - - 0.0
14/09:20am 15.3 14.6 8.5 64 3.5 SSW 2 4 1 2 - - 0.0
14/09:10am 14.4 13.4 9.0 70 2.8 SW 4 6 2 3 - - 0.0
14/09:00am 14.1 13.3 8.3 68 2.9 WSW 2 4 1 2 - - 0.0
14/08:50am 13.8 13.1 8.6 71 2.6 SSW 2 2 1 1 - - 0.0
14/08:40am 13.0 12.3 8.7 75 2.2 WSW 2 4 1 2 - - 0.0
14/08:30am 12.4 11.6 8.1 75 2.1 W 2 2 1 1 - - 0.0
14/08:20am 11.7 10.9 8.3 79 1.7 W 2 2 1 1 - - 0.0
14/07:30am 10.0 9.2 8.0 87 1.0 ESE 2 2 1 1 - - 0.0
14/07:20am 9.8 9.0 8.3 90 0.7 SSE 2 4 1 2 - - 0.0
14/07:10am 9.7 8.9 8.3 91 0.7 S 2 4 1 2 - - 0.0
14/07:00am 9.6 8.8 8.2 91 0.7 WNW 2 4 1 2 - - 0.0
14/06:50am 9.6 8.8 8.2 91 0.7 NW 2 4 1 2 - - 0.0
14/06:40am 9.5 8.6 7.9 90 0.8 NNE 2 2 1 1 - - 0.0
14/06:30am 9.3 8.4 7.7 90 0.8 E 2 2 1 1 - - 0.0
14/06:20am 9.2 8.3 7.9 92 0.6 SSE 2 2 1 1 - - 0.0
14/06:10am 9.3 8.5 8.0 92 0.6 SW 2 4 1 2 - - 0.0
14/06:00am 9.3 8.4 7.9 91 0.7 WNW 2 4 1 2 - - 0.0
14/05:50am 9.3 8.4 7.7 90 0.8 N 2 4 1 2 - - 0.0
14/05:40am 9.3 8.4 7.6 89 0.8 NNE 2 4 1 2 - - 0.0
14/05:30am 9.1 8.1 7.5 90 0.8 ENE 2 2 1 1 - - 0.0
14/05:20am 9.0 8.0 7.3 89 0.8 SE 2 2 1 1 - - 0.0
14/05:10am 9.0 7.7 7.7 91 0.6 SSW 4 6 2 3 - - 0.0
14/05:00am 9.2 8.0 7.9 92 0.6 SW 4 6 2 3 - - 0.0
14/04:50am 9.3 8.3 7.4 88 0.9 NNW 2 4 1 2 - - 0.0
14/04:40am 9.3 8.0 7.7 90 0.8 NNE 4 4 2 2 - - 0.0
14/04:30am 9.1 8.0 6.8 85 1.1 NE 2 4 1 2 - - 0.0
14/04:20am 8.7 7.6 6.8 88 0.9 E 2 4 1 2 - - 0.0
14/04:10am 8.3 7.2 7.1 92 0.6 SSE 2 2 1 1 - - 0.0
14/04:00am 8.0 6.9 7.0 93 0.5 SSE 2 2 1 1 - - 0.0
14/03:50am 7.8 6.3 6.7 93 0.5 SSW 4 7 2 4 - - 0.0
14/03:40am 8.5 7.4 7.0 90 0.7 SW 2 4 1 2 - - 0.0
14/03:30am 8.9 7.8 7.0 88 0.9 E 2 4 1 2 - - 0.0
14/03:20am 9.2 7.8 7.4 88 0.9 NNE 4 4 2 2 - - 0.0
14/03:10am 9.3 8.3 7.4 88 0.9 WNW 2 4 1 2 - - 0.0
14/03:00am 9.4 8.4 7.3 87 1.0 NNE 2 4 1 2 - - 0.0
14/02:50am 9.3 7.9 7.1 86 1.1 ENE 4 4 2 2 - - 0.0
14/02:40am 9.2 7.9 7.7 90 0.7 SSW 4 6 2 3 - - 0.0
14/02:30am 9.1 7.4 7.7 91 0.7 W 6 6 3 3 - - 0.0
14/02:20am 9.2 7.9 7.5 89 0.8 NNE 4 4 2 2 - - 0.0
14/02:10am 9.0 7.6 7.1 88 0.9 ENE 4 6 2 3 - - 0.0
14/02:00am 8.8 7.4 7.3 90 0.7 SW 4 4 2 2 - - 0.0
14/01:50am 8.7 7.4 7.5 92 0.6 WNW 4 6 2 3 - - 0.0
14/01:40am 8.3 7.2 6.8 90 0.7 ESE 2 6 1 3 - - 0.0
14/01:30am 8.1 7.4 7.0 93 0.5 CALM 0 2 0 1 - - 0.0
14/01:20am 8.0 6.9 6.8 92 0.6 S 2 2 1 1 - - 0.0
14/01:10am 8.1 6.9 6.6 90 0.7 SSE 2 2 1 1 - - 0.0
14/01:00am 8.3 6.7 6.4 88 0.9 NE 4 4 2 2 - - 0.0
14/12:50am 8.1 6.9 6.5 90 0.7 ENE 2 4 1 2 - - 0.0
14/12:40am 8.1 6.6 6.8 91 0.6 N 4 6 2 3 - - 0.0
14/12:30am 8.5 7.4 6.8 89 0.8 N 2 4 1 2 - - 0.0
14/12:20am 8.2 7.1 6.8 91 0.7 SSE 2 4 1 2 - - 0.0
14/12:10am 8.1 7.0 6.8 91 0.6 S 2 4 1 2 - - 0.0
14/12:00am 8.3 7.2 6.8 90 0.7 WSW 2 2 1 1 - - 0.0
 
Date/Time
EST
Temp
°C
App
Temp
°C
Dew
Point
°C
Rel
Hum
%
Delta-T
°C
Wind Press
QNH
hPa
Press
MSL
hPa
Rain since
9am
mm
Dir  Spd
km/h
Gust
km/h
Spd
kts
Gust
kts
13/11:50pm 8.5 7.4 6.8 89 0.8 NNE 2 6 1 3 - - 0.0
13/11:40pm 8.8 7.7 7.0 88 0.9 NNE 2 2 1 1 - - 0.0
13/11:30pm 8.9 7.9 7.2 89 0.8 SSW 2 2 1 1 - - 0.0
13/11:20pm 9.4 8.3 7.0 85 1.1 NNW 2 4 1 2 - - 0.0
13/11:10pm 9.5 8.5 7.2 85 1.1 E 2 4 1 2 - - 0.0
13/11:00pm 9.1 7.7 7.2 88 0.9 SSE 4 4 2 2 - - 0.0
13/10:50pm 8.7 7.2 7.0 89 0.8 S 4 6 2 3 - - 0.0
13/10:40pm 8.7 7.6 7.0 89 0.8 S 2 4 1 2 - - 0.0
13/10:30pm 8.5 7.4 7.0 90 0.7 WSW 2 4 1 2 - - 0.0
13/10:20pm 8.6 7.5 6.8 88 0.8 NW 2 4 1 2 - - 0.0
13/10:10pm 8.9 7.8 6.9 87 0.9 NNE 2 4 1 2 - - 0.0
13/10:00pm 9.3 8.2 6.7 84 1.2 E 2 4 1 2 - - 0.0
13/09:50pm 8.9 7.4 6.7 86 1.0 SE 4 6 2 3 - - 0.0
13/09:40pm 8.9 7.7 6.3 84 1.2 SSE 2 4 1 2 - - 0.0
13/09:30pm 8.9 7.3 6.3 84 1.2 E 4 4 2 2 - - 0.0
13/09:20pm 8.7 6.8 6.9 88 0.9 S 6 7 3 4 - - 0.0
13/09:10pm 9.3 7.8 6.9 85 1.1 SSW 4 7 2 4 - - 0.0
13/09:00pm 9.7 8.6 6.8 82 1.4 SE 2 4 1 2 - - 0.0
13/08:50pm 10.1 9.0 6.8 80 1.6 ESE 2 4 1 2 - - 0.0
13/08:40pm 10.7 9.6 6.7 76 1.9 SE 2 4 1 2 - - 0.0
13/08:30pm 10.8 9.7 6.8 76 1.9 SSE 2 4 1 2 - - 0.0
13/08:20pm 10.8 9.7 7.0 77 1.8 SE 2 2 1 1 - - 0.0
13/08:10pm 11.4 10.4 7.4 76 2.0 ESE 2 4 1 2 - - 0.0
13/08:00pm 11.8 10.4 7.4 74 2.2 ESE 4 4 2 2 - - 0.0
13/07:50pm 11.6 10.3 7.6 76 2.0 S 4 6 2 3 - - 0.0
13/07:40pm 11.9 10.5 7.2 73 2.3 S 4 6 2 3 - - 0.0
13/07:30pm 12.1 10.7 7.2 72 2.4 S 4 6 2 3 - - 0.0
13/07:20pm 12.1 10.9 7.9 75 2.1 S 4 6 2 3 - - 0.0
13/07:10pm 12.4 11.5 7.9 74 2.2 ESE 2 2 1 1 - - 0.0
13/07:00pm 12.7 11.7 7.4 70 2.6 E 2 4 1 2 - - 0.0
13/06:50pm 12.9 11.4 6.9 67 2.9 E 4 4 2 2 - - 0.0
13/06:40pm 12.8 11.3 6.8 67 2.9 ESE 4 4 2 2 - - 0.0
13/06:30pm 13.3 11.9 7.1 66 3.1 E 4 4 2 2 - - 0.0
13/06:20pm 13.9 12.9 7.3 64 3.3 E 2 4 1 2 - - 0.0
13/06:10pm 14.6 13.6 7.5 62 3.6 ESE 2 2 1 1 - - 0.0
13/06:00pm 14.8 14.0 8.1 64 3.4 SSW 2 4 1 2 - - 0.0
13/05:50pm 15.6 14.6 7.3 57 4.2 WSW 2 4 1 2 - - 0.0
13/05:40pm 16.9 15.4 6.6 50 5.1 ENE 4 6 2 3 - - 0.0
13/05:30pm 17.7 16.7 7.3 50 5.3 ENE 2 4 1 2 - - 0.0
13/05:20pm 18.6 17.5 7.0 46 5.9 NE 2 2 1 1 - - 0.0
13/05:10pm 19.0 17.6 5.4 41 6.7 N 2 2 1 1 - - 0.0
13/05:00pm 19.4 18.0 5.4 40 6.9 NNW 2 2 1 1 - - 0.0
13/04:50pm 19.9 18.2 6.0 40 7.0 NNW 4 6 2 3 - - 0.0
13/04:40pm 20.5 18.6 4.9 36 7.7 WNW 4 6 2 3 - - 0.0
13/04:30pm 20.0 17.9 5.7 39 7.2 WSW 6 7 3 4 - - 0.0
13/04:20pm 20.4 18.2 5.1 36 7.6 W 6 7 3 4 - - 0.0
13/04:10pm 19.9 18.1 5.6 39 7.1 NW 4 6 2 3 - - 0.0
13/04:00pm 19.7 17.5 5.1 38 7.2 WNW 6 7 3 4 - - 0.0
13/03:50pm 19.8 17.6 5.1 38 7.3 NW 6 9 3 5 - - 0.0
13/03:40pm 19.9 17.2 5.5 39 7.2 NNW 9 11 5 6 - - 0.0
13/03:30pm 20.1 17.8 5.7 39 7.2 WNW 7 11 4 6 - - 0.0
13/03:20pm 20.0 17.7 5.7 39 7.2 WNW 7 9 4 5 - - 0.0
13/03:10pm 19.9 16.6 4.6 36 7.5 WNW 11 13 6 7 - - 0.0
13/03:00pm 20.0 17.1 4.8 36 7.5 NW 9 15 5 8 - - 0.0
13/02:50pm 20.9 18.0 4.8 35 8.0 WNW 9 13 5 7 - - 0.0
13/02:40pm 20.9 18.0 4.8 35 8.0 NW 9 15 5 8 - - 0.0
13/02:30pm 20.9 17.6 4.5 34 8.1 NW 11 17 6 9 - - 0.0
13/02:20pm 20.8 18.1 5.6 37 7.6 NNW 9 13 5 7 - - 0.0
13/02:10pm 20.9 18.2 5.7 37 7.7 NW 9 15 5 8 - - 0.0
13/02:00pm 20.5 17.3 5.3 37 7.6 NW 11 15 6 8 - - 0.0
13/01:50pm 20.3 16.7 5.0 36 7.6 WNW 13 17 7 9 - - 0.0
13/01:40pm 20.4 16.7 4.4 35 7.8 NW 13 17 7 9 - - 0.0
13/01:30pm 20.3 16.4 3.5 33 8.1 NW 13 17 7 9 - - 0.0
13/01:20pm 20.3 16.0 3.5 33 8.1 NW 15 20 8 11 - - 0.0
13/01:10pm 20.3 16.0 3.1 32 8.2 NW 15 19 8 10 - - 0.0
13/01:00pm 20.2 16.0 3.9 34 7.9 NW 15 22 8 12 - - 0.0
13/12:50pm 19.9 16.0 5.3 38 7.3 WNW 15 19 8 10 - - 0.0
13/12:40pm 20.0 16.3 6.1 40 7.0 NNW 15 19 8 10 - - 0.0
13/12:30pm 19.8 16.1 6.3 41 6.8 NW 15 19 8 10 - - 0.0
13/12:20pm 19.7 17.2 6.7 42 6.6 WNW 9 13 5 7 - - 0.0
13/12:10pm 19.3 16.7 6.0 41 6.7 NW 9 15 5 8 - - 0.0
13/12:00pm 19.2 17.1 6.6 44 6.4 NW 7 11 4 6 - - 0.0
13/11:50am 18.9 16.2 5.8 42 6.5 NNW 9 13 5 7 - - 0.0
13/11:40am 18.8 16.7 6.8 45 6.1 N 7 11 4 6 - - 0.0
13/11:30am 18.3 16.4 7.4 49 5.6 NW 7 13 4 7 - - 0.0
13/11:20am 17.8 15.8 7.3 50 5.3 NNW 7 9 4 5 - - 0.0
13/11:10am 17.6 15.7 6.9 49 5.4 W 6 7 3 4 - - 0.0
13/11:00am 17.2 15.7 6.8 50 5.2 SW 4 6 2 3 - - 0.0
13/10:50am 17.2 15.3 6.5 49 5.3 WSW 6 7 3 4 - - 0.0
13/10:40am 16.7 15.0 6.1 49 5.2 WSW 4 6 2 3 - - 0.0
13/10:30am 16.0 14.3 5.8 50 5.0 W 4 6 2 3 - - 0.0
13/10:20am 15.5 14.0 7.0 57 4.2 WSW 4 7 2 4 - - 0.0
13/10:10am 14.8 13.3 6.8 58 4.0 W 4 6 2 3 - - 0.0
13/10:00am 14.2 12.8 7.2 63 3.5 SW 4 7 2 4 - - 0.0
13/09:50am 13.8 12.5 7.5 66 3.1 SSW 4 6 2 3 - - 0.0
13/09:40am 13.0 11.7 7.5 69 2.7 WSW 4 6 2 3 - - 0.0
13/09:30am 12.0 10.9 7.0 71 2.4 W 2 4 1 2 - - 0.0
13/09:20am 11.3 10.2 6.7 73 2.2 WSW 2 2 1 1 - - 0.0
13/09:10am 10.7 9.5 6.4 75 2.0 W 2 2 1 1 - - 0.0
13/09:00am 9.7 8.4 6.2 79 1.6 NNW 2 2 1 1 - - 0.0
13/08:50am 8.6 7.2 5.5 81 1.4 W 2 2 1 1 - - 0.0
13/08:40am 7.4 6.0 5.3 86 0.9 WNW 2 4 1 2 - - 0.0
13/08:30am 6.4 4.9 5.1 91 0.6 NW 2 2 1 1 - - 0.0
13/08:20am 5.4 3.8 4.5 94 0.4 NNW 2 4 1 2 - - 0.0
13/08:10am 4.6 2.9 4.0 96 0.3 N 2 4 1 2 - - 0.0
13/08:00am 3.7 1.9 3.2 97 0.2 N 2 4 1 2 - - 0.0
13/07:50am 2.8 0.8 2.4 97 0.2 N 2 4 1 2 - - 0.0
13/07:40am 1.8 -0.7 1.4 97 0.2 N 4 6 2 3 - - 0.0
13/07:30am 1.1 -1.6 0.6 96 0.2 N 4 6 2 3 - - 0.0
13/07:20am 0.6 -1.7 0.2 97 0.1 NNW 2 4 1 2 - - 0.0
13/07:10am 0.3 -1.7 0.0 98 0.1 CALM 0 2 0 1 - - 0.0
13/07:00am 0.1 -1.9 -0.3 97 0.2 CALM 0 2 0 1 - - 0.0
13/06:50am -0.2 -2.6 -0.6 97 0.1 WSW 2 2 1 1 - - 0.0
13/06:40am -0.3 -2.8 -0.7 97 0.1 WSW 2 2 1 1 - - 0.0
13/06:30am -0.2 -2.6 -0.6 97 0.1 NNW 2 2 1 1 - - 0.0
13/06:20am -0.1 -2.5 -0.5 97 0.1 NNE 2 2 1 1 - - 0.0
13/06:10am 0.3 -2.1 -0.1 97 0.1 NNE 2 2 1 1 - - 0.0
13/06:00am 0.3 -1.7 -0.1 97 0.1 CALM 0 0 0 0 - - 0.0
13/05:50am 0.1 -1.9 -0.3 97 0.2 CALM 0 2 0 1 - - 0.0
13/05:40am 0.2 -2.2 -0.2 97 0.1 WSW 2 2 1 1 - - 0.0
13/05:30am 0.4 -2.0 0.0 97 0.1 S 2 4 1 2 - - 0.0
13/05:20am 0.6 -1.7 0.2 97 0.1 SE 2 4 1 2 - - 0.0
13/05:10am 0.6 -1.7 0.1 96 0.2 E 2 2 1 1 - - 0.0
13/05:00am 0.6 -1.7 0.2 97 0.1 NW 2 2 1 1 - - 0.0
13/04:50am 0.7 -1.6 0.3 97 0.1 N 2 2 1 1 - - 0.0
13/04:40am 0.8 -1.5 0.3 96 0.2 N 2 2 1 1 - - 0.0
13/04:30am 1.4 -0.8 1.0 97 0.2 NNE 2 4 1 2 - - 0.0
13/04:20am 1.4 -0.8 1.0 97 0.2 N 2 2 1 1 - - 0.0
13/04:10am 1.2 -1.0 0.8 97 0.2 S 2 2 1 1 - - 0.0
13/04:00am 1.1 -1.2 0.6 96 0.2 SSW 2 2 1 1 - - 0.0
13/03:50am 1.0 -1.3 0.4 96 0.2 W 2 4 1 2 - - 0.0
13/03:40am 1.5 -0.7 0.9 96 0.2 N 2 4 1 2 - - 0.0
13/03:30am 1.9 -0.2 1.4 96 0.2 NNE 2 4 1 2 - - 0.0
13/03:20am 1.8 -0.4 1.3 96 0.2 N 2 2 1 1 - - 0.0
13/03:10am 1.7 -0.5 1.2 96 0.2 SSE 2 4 1 2 - - 0.0
13/03:00am 1.6 -1.0 1.0 96 0.2 SSW 4 4 2 2 - - 0.0
13/02:50am 1.7 -0.9 1.1 96 0.2 SSW 4 4 2 2 - - 0.0
13/02:40am 1.9 -0.3 1.2 95 0.3 S 2 4 1 2 - - 0.0
13/02:30am 2.1 0.0 1.4 95 0.3 ESE 2 2 1 1 - - 0.0
13/02:20am 2.1 0.0 1.4 95 0.3 WSW 2 4 1 2 - - 0.0
13/02:10am 2.2 0.0 1.3 94 0.3 NE 2 2 1 1 - - 0.0
13/02:00am 2.5 0.4 1.8 95 0.3 ESE 2 4 1 2 - - 0.0
13/01:50am 2.8 0.7 2.0 94 0.3 ENE 2 2 1 1 - - 0.0
13/01:40am 2.7 0.6 1.9 94 0.3 E 2 2 1 1 - - 0.0
13/01:30am 2.6 0.5 1.8 94 0.3 W 2 2 1 1 - - 0.0
13/01:20am 2.7 0.6 1.7 93 0.4 W 2 2 1 1 - - 0.0
13/01:10am 2.9 1.2 2.0 94 0.4 CALM 0 2 0 1 - - 0.0
13/01:00am 3.0 1.0 2.2 94 0.3 ENE 2 2 1 1 - - 0.0
13/12:50am 3.0 1.0 2.3 95 0.3 ESE 2 2 1 1 - - 0.0
13/12:40am 2.9 0.9 2.2 95 0.3 WNW 2 2 1 1 - - 0.0
13/12:30am 2.9 0.8 1.8 92 0.4 E 2 6 1 3 - - 0.0
13/12:20am 3.4 1.0 2.3 92 0.4 N 4 6 2 3 - - 0.0
13/12:10am 3.8 1.5 2.5 91 0.5 E 4 6 2 3 - - 0.0
13/12:00am 3.6 1.7 2.6 93 0.4 S 2 4 1 2 - - 0.0
 
Date/Time
EST
Temp
°C
App
Temp
°C
Dew
Point
°C
Rel
Hum
%
Delta-T
°C
Wind Press
QNH
hPa
Press
MSL
hPa
Rain since
9am
mm
Dir  Spd
km/h
Gust
km/h
Spd
kts
Gust
kts
12/11:50pm 3.6 1.6 2.3 91 0.5 W 2 2 1 1 - - 0.0
12/11:40pm 3.8 1.9 2.7 92 0.5 N 2 4 1 2 - - 0.0
12/11:30pm 3.9 2.0 2.8 92 0.5 S 2 4 1 2 - - 0.0
12/11:20pm 4.2 2.2 2.5 89 0.7 SSE 2 2 1 1 - - 0.0
12/11:10pm 4.6 2.7 2.8 88 0.7 SSE 2 4 1 2 - - 0.0
12/11:00pm 4.7 3.2 3.1 89 0.7 CALM 0 2 0 1 - - 0.0
12/10:50pm 4.9 3.0 3.1 88 0.8 SSE 2 4 1 2 - - 0.0
12/10:40pm 5.1 3.6 3.2 87 0.8 CALM 0 2 0 1 - - 0.0
12/10:30pm 5.3 3.5 3.3 87 0.8 NNE 2 4 1 2 - - 0.0
12/10:20pm 5.3 3.5 3.5 88 0.8 E 2 2 1 1 - - 0.0
12/10:10pm 5.3 3.5 3.6 89 0.7 W 2 4 1 2 - - 0.0
12/10:00pm 5.7 3.9 3.2 84 1.1 S 2 4 1 2 - - 0.0
12/09:50pm 6.3 4.6 3.8 84 1.1 ESE 2 4 1 2 - - 0.0
12/09:40pm 6.6 4.8 3.5 80 1.3 N 2 4 1 2 - - 0.0
12/09:30pm 6.9 5.2 4.0 82 1.3 SE 2 4 1 2 - - 0.0
12/09:20pm 6.7 5.0 4.0 83 1.2 SE 2 4 1 2 - - 0.0
12/09:10pm 7.0 5.0 4.2 82 1.2 S 4 4 2 2 - - 0.0
12/09:00pm 8.1 5.6 3.9 75 1.8 E 6 7 3 4 - - 0.0
12/08:50pm 7.3 4.9 4.4 82 1.3 SE 6 7 3 4 - - 0.0
12/08:40pm 9.0 6.4 4.2 72 2.1 E 7 9 4 5 - - 0.0
12/08:30pm 8.4 6.8 4.3 75 1.8 E 2 4 1 2 - - 0.0
12/08:20pm 9.0 7.0 4.2 72 2.1 ESE 4 6 2 3 - - 0.0
12/08:10pm 9.1 7.4 4.0 70 2.3 ESE 2 4 1 2 - - 0.0
12/08:00pm 9.4 7.4 4.5 71 2.2 E 4 6 2 3 - - 0.0
12/07:50pm 9.5 7.9 4.3 70 2.3 SSE 2 4 1 2 - - 0.0
12/07:40pm 10.8 8.8 4.6 65 2.8 N 4 4 2 2 - - 0.0
12/07:30pm 11.8 9.8 4.3 60 3.4 NE 4 4 2 2 - - 0.0
12/07:20pm 12.3 10.7 4.4 58 3.6 NNE 2 4 1 2 - - 0.0
12/07:10pm 12.7 10.3 4.2 56 3.9 NNW 6 7 3 4 - - 0.0
12/07:00pm 12.8 9.9 4.4 56 3.9 N 9 9 5 5 - - 0.0
12/06:50pm 13.2 10.2 4.2 54 4.2 N 9 11 5 6 - - 0.0
12/06:40pm 13.4 10.1 4.3 54 4.2 N 11 13 6 7 - - 0.0
12/06:30pm 13.3 10.0 4.5 55 4.1 N 11 13 6 7 - - 0.0
12/06:20pm 13.1 10.5 4.4 55 4.0 N 7 9 4 5 - - 0.0
12/06:10pm 13.6 11.2 4.4 53 4.3 NW 6 7 3 4 - - 0.0
12/06:00pm 14.1 11.7 4.5 52 4.5 NW 6 6 3 3 - - 0.0
12/05:50pm 14.7 12.3 4.5 50 4.8 WNW 6 7 3 4 - - 0.0
12/05:40pm 15.5 12.6 4.6 48 5.2 W 9 11 5 6 - - 0.0
12/05:30pm 16.3 13.8 4.7 46 5.6 W 7 9 4 5 - - 0.0
12/05:20pm 16.8 13.9 4.9 45 5.7 W 9 9 5 5 - - 0.0
12/05:10pm 17.2 13.5 4.4 42 6.1 W 13 15 7 8 - - 0.0
12/05:00pm 17.6 14.0 4.8 42 6.2 W 13 15 7 8 - - 0.0
12/04:50pm 18.1 14.9 5.1 42 6.4 W 11 15 6 8 - - 0.0
12/04:40pm 18.3 14.6 4.4 39 6.7 W 13 17 7 9 - - 0.0
12/04:30pm 18.6 14.9 4.7 40 6.8 W 13 15 7 8 - - 0.0
12/04:20pm 18.7 15.0 4.5 39 6.9 W 13 15 7 8 - - 0.0
12/04:10pm 18.8 14.7 4.1 37 7.1 W 15 19 8 10 - - 0.0
12/04:00pm 19.2 15.9 4.4 37 7.2 W 11 17 6 9 - - 0.0
12/03:50pm 19.1 15.4 4.5 38 7.1 WNW 13 17 7 9 - - 0.0
12/03:40pm 19.1 15.3 3.8 36 7.3 WNW 13 15 7 8 - - 0.0
12/03:30pm 19.6 17.0 4.2 36 7.5 W 7 13 4 7 - - 0.0
12/03:20pm 19.5 16.4 3.8 35 7.6 WSW 9 15 5 8 - - 0.0
12/03:10pm 19.6 17.0 4.3 36 7.4 WNW 7 15 4 8 - - 0.0
12/03:00pm 19.3 16.4 4.8 38 7.1 N 9 15 5 8 - - 0.0
12/02:50pm 19.7 17.1 4.1 35 7.6 N 7 11 4 6 - - 0.0
12/02:40pm 19.6 17.2 4.1 36 7.5 WNW 6 7 3 4 - - 0.0
12/02:30pm 19.3 16.8 4.6 38 7.2 NNW 7 15 4 8 - - 0.0
12/02:20pm 19.2 16.4 5.0 39 7.0 NNW 9 13 5 7 - - 0.0
12/02:10pm 19.1 16.6 4.5 38 7.1 N 7 11 4 6 - - 0.0
12/02:00pm 18.9 16.5 4.4 38 7.0 N 6 15 3 8 - - 0.0
12/01:50pm 18.5 15.9 4.2 38 6.9 N 7 11 4 6 - - 0.0
12/01:40pm 18.5 15.5 4.1 38 6.9 WNW 9 15 5 8 - - 0.0
12/01:30pm 18.3 15.4 4.6 40 6.6 NNW 9 15 5 8 - - 0.0
12/01:20pm 18.3 15.3 4.2 39 6.8 NW 9 15 5 8 - - 0.0
12/01:10pm 17.7 14.8 4.7 42 6.3 N 9 13 5 7 - - 0.0
12/01:00pm 17.5 14.2 4.7 42 6.2 N 11 15 6 8 - - 0.0
12/12:50pm 17.6 15.0 4.4 41 6.3 WNW 7 17 4 9 - - 0.0
12/12:40pm 17.1 14.3 5.3 45 5.7 WNW 9 15 5 8 - - 0.0
12/12:30pm 16.7 14.1 4.1 43 6.0 N 7 11 4 6 - - 0.0
12/12:20pm 16.4 13.8 6.0 50 5.1 NW 9 15 5 8 - - 0.0
12/12:10pm 16.5 13.3 5.3 47 5.4 N 11 13 6 7 - - 0.0
12/12:00pm 16.1 12.5 4.9 47 5.4 N 13 17 7 9 - - 0.0
12/11:50am 16.3 13.9 5.3 48 5.3 N 7 9 4 5 - - 0.0
12/11:40am 15.5 12.2 4.7 48 5.1 N 11 15 6 8 - - 0.0
12/11:30am 15.2 12.3 4.8 50 4.9 NNW 9 15 5 8 - - 0.0
12/11:20am 14.9 12.2 5.4 53 4.6 N 9 15 5 8 - - 0.0
12/11:10am 14.5 11.7 5.3 54 4.4 NNW 9 11 5 6 - - 0.0
12/11:00am 13.9 11.6 5.6 57 4.0 WNW 7 11 4 6 - - 0.0
12/10:50am 13.9 11.4 5.0 55 4.2 N 7 11 4 6 - - 0.0
12/10:40am 13.5 11.4 5.7 59 3.7 N 6 7 3 4 - - 0.0
12/10:30am 13.0 10.7 4.6 56 3.9 NW 6 9 3 5 - - 0.0
12/10:20am 12.9 10.5 4.5 56 3.9 NNW 6 9 3 5 - - 0.0
12/10:10am 12.2 9.8 5.3 62 3.2 N 7 9 4 5 - - 0.0
12/10:00am 11.8 9.6 5.1 63 3.1 N 6 9 3 5 - - 0.0
12/09:50am 11.5 9.2 4.8 63 3.1 N 6 9 3 5 - - 0.0
12/09:40am 11.2 9.7 5.2 66 2.8 NNE 2 7 1 4 - - 0.0
12/09:30am 10.5 9.0 4.8 68 2.6 NNE 2 6 1 3 - - 0.0
12/09:20am 9.6 8.0 4.6 71 2.3 W 2 2 1 1 - - 0.0
12/09:10am 8.9 6.9 4.6 74 1.9 S 4 6 2 3 - - 0.0
12/09:00am 8.6 7.0 4.7 76 1.8 NW 2 4 1 2 - - 0.0
12/08:50am 8.0 6.4 4.6 79 1.5 W 2 4 1 2 - - 0.0
12/08:40am 7.5 5.5 4.4 81 1.4 W 4 4 2 2 - - 0.0
12/08:30am 7.3 5.6 4.2 81 1.4 WSW 2 2 1 1 - - 0.0
12/08:20am 6.4 4.6 3.7 83 1.2 NW 2 4 1 2 - - 0.0
12/08:10am 5.6 3.7 3.0 83 1.1 NE 2 4 1 2 - - 0.0
12/08:00am 4.5 2.6 2.9 89 0.7 SSE 2 2 1 1 - - 0.0
12/07:50am 3.7 1.7 2.3 91 0.6 SSE 2 4 1 2 - - 0.0
12/07:40am 2.8 0.7 1.7 92 0.4 ESE 2 4 1 2 - - 0.0
12/07:30am 1.6 -0.6 0.9 95 0.3 S 2 4 1 2 - - 0.0
12/07:20am 0.7 -1.7 0.0 95 0.3 S 2 4 1 2 - - 0.0
12/07:10am 0.2 -2.2 -0.4 96 0.2 S 2 4 1 2 - - 0.0
12/07:00am 0.0 -2.5 -0.7 95 0.3 WSW 2 2 1 1 - - 0.0
12/06:50am 0.2 -2.2 -0.5 95 0.3 S 2 2 1 1 - - 0.0
12/06:40am 0.5 -1.9 -0.2 95 0.3 E 2 4 1 2 - - 0.0
12/06:30am 0.5 -2.6 0.0 96 0.2 ESE 6 6 3 3 - - 0.0
12/06:20am 0.5 -1.9 -0.1 96 0.2 SSE 2 4 1 2 - - 0.0
12/06:10am 0.4 -2.7 -0.1 96 0.2 ESE 6 6 3 3 - - 0.0
12/06:00am 0.0 -2.8 -0.7 95 0.3 WSW 4 6 2 3 - - 0.0
12/05:50am 0.3 -2.5 -0.7 93 0.4 SW 4 6 2 3 - - 0.0
12/05:40am 1.1 -2.0 0.3 94 0.3 ESE 6 7 3 4 - - 0.0
12/05:30am 0.8 -2.3 0.2 96 0.2 E 6 7 3 4 - - 0.0
12/05:20am 0.2 -1.9 -0.8 93 0.4 CALM 0 2 0 1 - - 0.0
12/05:10am 0.6 -2.2 -0.4 93 0.4 SSE 4 6 2 3 - - 0.0
12/05:00am 1.3 -1.8 -0.1 90 0.5 SE 6 7 3 4 - - 0.0
12/04:50am 1.8 -1.4 0.8 93 0.4 ESE 7 9 4 5 - - 0.0
12/04:40am 2.0 -0.6 0.8 92 0.5 ESE 4 6 2 3 - - 0.0
12/04:30am 2.4 -0.7 1.3 92 0.4 ESE 7 9 4 5 - - 0.0
12/04:20am 2.6 0.0 1.2 90 0.5 E 4 6 2 3 - - 0.0
12/04:10am 2.8 0.2 1.2 89 0.6 NE 4 9 2 5 - - 0.0
12/04:00am 3.0 0.0 2.0 93 0.4 ENE 7 9 4 5 - - 0.0
12/03:50am 2.2 -0.3 1.3 94 0.3 SE 4 6 2 3 - - 0.0
12/03:40am 2.2 -0.8 1.0 92 0.5 SE 6 9 3 5 - - 0.0
12/03:30am 2.8 -0.3 1.6 92 0.5 E 7 9 4 5 - - 0.0
12/03:20am 2.7 0.2 1.4 91 0.5 ESE 4 7 2 4 - - 0.0
12/03:10am 2.8 0.3 1.8 93 0.4 NNE 4 6 2 3 - - 0.0
12/03:00am 2.7 0.1 1.2 90 0.6 E 4 9 2 5 - - 0.0
12/02:50am 2.4 -0.5 1.7 95 0.3 ENE 6 11 3 6 - - 0.0
12/02:40am 1.9 -0.3 0.8 92 0.4 NE 2 4 1 2 - - 0.0
12/02:30am 2.5 0.0 1.3 92 0.5 E 4 6 2 3 - - 0.0
12/02:20am 2.9 0.7 1.2 89 0.7 ESE 2 4 1 2 - - 0.0
12/02:10am 3.4 1.4 2.2 92 0.5 E 2 4 1 2 - - 0.0
12/02:00am 2.9 0.4 1.8 92 0.4 E 4 6 2 3 - - 0.0
12/01:50am 2.3 -0.7 1.1 92 0.5 E 6 7 3 4 - - 0.0
12/01:40am 1.9 -1.1 0.9 93 0.4 ESE 6 7 3 4 - - 0.0
12/01:30am 2.0 -1.0 1.0 93 0.4 NE 6 7 3 4 - - 0.0
12/01:20am 2.3 -0.4 0.4 87 0.7 N 4 6 2 3 - - 0.0
12/01:10am 2.6 0.4 1.2 90 0.5 - 2 2 1 1 - - 0.0
12/01:00am 2.6 0.5 1.4 92 0.5 SSW 2 4 1 2 - - 0.0
12/12:50am 2.4 0.3 1.4 93 0.4 SW 2 4 1 2 - - 0.0
12/12:40am 3.0 0.9 1.6 90 0.6 NE 2 4 1 2 - - 0.0
12/12:30am 3.0 0.9 1.8 92 0.5 NNE 2 4 1 2 - - 0.0
12/12:20am 3.1 0.2 1.6 90 0.6 N 6 6 3 3 - - 0.0
12/12:10am 3.2 1.1 1.9 91 0.5 NNW 2 4 1 2 - - 0.0
12/12:00am 3.5 1.4 1.6 87 0.8 NW 2 4 1 2 - - 0.0
 
Date/Time
EST
Temp
°C
App
Temp
°C
Dew
Point
°C
Rel
Hum
%
Delta-T
°C
Wind Press
QNH
hPa
Press
MSL
hPa
Rain since
9am
mm
Dir  Spd
km/h
Gust
km/h
Spd
kts
Gust
kts
11/11:50pm 4.3 2.3 2.1 86 0.9 NE 2 2 1 1 - - 0.0
11/11:40pm 4.3 1.9 2.2 86 0.9 ENE 4 4 2 2 - - 0.0
11/11:30pm 4.0 1.6 2.4 89 0.7 NE 4 4 2 2 - - 0.0
11/11:20pm 3.8 1.4 2.1 89 0.7 N 4 6 2 3 - - 0.0
11/11:10pm 3.9 1.1 2.0 87 0.8 NW 6 6 3 3 - - 0.0
11/11:00pm 4.4 2.3 1.9 84 1.0 WSW 2 4 1 2 - - 0.0
11/10:50pm 4.9 2.9 2.4 84 1.0 S 2 4 1 2 - - 0.0
11/10:40pm 5.8 3.8 2.5 79 1.4 S 2 2 1 1 - - 0.0
11/10:30pm 6.3 4.4 2.6 77 1.5 E 2 4 1 2 - - 0.0
11/10:20pm 6.2 3.8 2.2 75 1.7 E 4 7 2 4 - - 0.0
11/10:10pm 6.2 3.9 2.6 78 1.5 NE 4 6 2 3 - - 0.0
11/10:00pm 5.8 3.9 2.7 80 1.3 N 2 4 1 2 - - 0.0
11/09:50pm 6.2 4.3 2.6 78 1.5 SW 2 4 1 2 - - 0.0
11/09:40pm 6.9 4.2 2.6 74 1.8 SE 6 6 3 3 - - 0.0
11/09:30pm 7.2 4.5 2.9 74 1.8 E 6 7 3 4 - - 0.0
11/09:20pm 7.3 4.6 2.9 73 1.9 E 6 9 3 5 - - 0.0
11/09:10pm 8.5 6.6 3.0 68 2.4 SW 2 4 1 2 - - 0.0
11/09:00pm 8.8 6.2 3.0 67 2.5 SW 6 9 3 5 - - 0.0
11/08:50pm 9.2 6.4 3.0 65 2.7 SW 7 9 4 5 - - 0.0
11/08:40pm 9.3 6.5 3.0 65 2.7 SW 7 11 4 6 - - 0.0
11/08:30pm 9.5 5.9 2.9 63 2.9 SW 11 13 6 7 - - 0.0
11/08:20pm 9.5 6.2 2.7 62 2.9 WSW 9 13 5 7 - - 0.0
11/08:10pm 9.4 6.1 2.7 63 2.9 WSW 9 11 5 6 - - 0.0
11/08:00pm 9.4 6.7 2.5 62 3.0 W 6 7 3 4 - - 0.0
11/07:50pm 9.8 7.1 2.6 61 3.1 W 6 7 3 4 - - 0.0
11/07:40pm 10.2 7.3 2.8 60 3.2 SW 7 9 4 5 - - 0.0
11/07:30pm 10.5 7.2 2.6 58 3.4 WSW 9 13 5 7 - - 0.0
11/07:20pm 10.7 7.1 2.7 57 3.5 SW 11 17 6 9 - - 0.0
11/07:10pm 10.6 7.7 2.6 57 3.5 WSW 7 11 4 6 - - 0.0
11/07:00pm 10.7 7.8 2.5 57 3.6 WSW 7 13 4 7 - - 0.0
11/06:50pm 10.9 8.0 2.6 56 3.6 WSW 7 11 4 6 - - 0.0
11/06:40pm 11.3 7.2 2.5 54 3.9 WSW 13 19 7 10 - - 0.0
11/06:30pm 11.2 6.7 2.3 54 3.9 W 15 20 8 11 - - 0.0
11/06:20pm 11.1 7.1 2.6 56 3.7 W 13 19 7 10 - - 0.0
11/06:10pm 11.1 7.5 2.7 56 3.7 WSW 11 15 6 8 - - 0.0
11/06:00pm 11.5 7.1 2.5 54 3.9 WSW 15 19 8 10 - - 0.0
11/05:50pm 11.7 7.2 2.3 52 4.1 WSW 15 19 8 10 - - 0.0
11/05:40pm 11.9 7.4 2.4 52 4.2 W 15 19 8 10 - - 0.0
11/05:30pm 12.0 8.0 2.6 52 4.2 W 13 19 7 10 - - 0.0
11/05:20pm 12.2 7.8 2.5 51 4.3 W 15 17 8 9 - - 0.0
11/05:10pm 12.4 7.6 2.4 50 4.4 WSW 17 20 9 11 - - 0.0
11/05:00pm 12.3 7.1 2.2 50 4.4 WSW 19 26 10 14 - - 0.0
11/04:50pm 12.3 7.0 1.9 49 4.5 WSW 19 22 10 12 - - 0.0
11/04:40pm 12.6 7.1 1.8 47 4.7 WSW 20 28 11 15 - - 0.0
11/04:30pm 12.8 6.5 1.7 47 4.8 WSW 24 30 13 16 - - 0.0
11/04:20pm 13.8 7.9 1.7 44 5.3 WSW 22 26 12 14 - - 0.0
11/04:10pm 14.8 8.9 1.9 41 5.8 W 22 26 12 14 - - 0.0
11/04:00pm 14.3 9.4 2.1 43 5.4 WSW 17 20 9 11 - - 0.0
11/03:50pm 14.6 10.0 1.6 41 5.7 WSW 15 19 8 10 - - 0.0
11/03:40pm 14.4 9.9 2.1 43 5.5 WSW 15 19 8 10 - - 0.0
11/03:30pm 14.4 8.9 2.0 43 5.5 W 20 24 11 13 - - 0.0
11/03:20pm 14.2 9.0 2.6 45 5.2 WSW 19 22 10 12 - - 0.0
11/03:10pm 14.1 8.9 2.4 45 5.2 WSW 19 22 10 12 - - 0.0
11/03:00pm 13.6 8.3 2.1 45 5.1 WSW 19 26 10 14 - - 0.0

Other formats

Comma delimited format used in spreadsheet applications
http://www.bom.gov.au/fwo/IDN60801/IDN60801.99072.axf

JavaScript Object Notation format (JSON) in row-major order
http://www.bom.gov.au/fwo/IDN60801/IDN60801.99072.json

Data quality

Most of these data are generated automatically and are frequently updated. Quality checks on data are not normally performed. It is possible for incorrect values to appear. Refer to information at About Latest Weather Observations and please check the disclaimer before using these data.